Ag.nikolaos-ii — SV4090 — position and weather

sailwx.info

Track history (hours):
 
Tides and Currents Weather Stations Pressure Air Temp Water Temp Dewpoint Dewpoint Depression Visibility Wind Speed Wind Dir Waves Ship Positions

Ag.nikolaos-ii

Last reported at 2018-Jun-19 01:00 UTC. Time now 2018-Jun-19 01:21 UTC.
Position N 40°51' E 024°19'.

Length 21 m; draft 2 m.

Type: Fishing. MMSI: 239044000.

Date/timePositionNaut miles runAvg speedWind from/ knotsBaromVisibWave heightAir tempDewpointWater temp
2018-Jun-19 01:00N 40°51' E 024°19'0 0.0
2018-Jun-19 00:30N 40°51' E 024°19'0 0.0
2018-Jun-19 00:00N 40°51' E 024°19'0 0.0
2018-Jun-18 23:30N 40°51' E 024°19'2 4.9
2018-Jun-18 23:00N 40°49' E 024°19'5 9.4
2018-Jun-18 22:30N 40°46' E 024°14'5 9.8
2018-Jun-18 22:00N 40°43' E 024°09'0 0.6
2018-Jun-18 21:29N 40°42' E 024°09'0 0.2
2018-Jun-18 21:01N 40°42' E 024°09'0 0.5
2018-Jun-18 20:30N 40°42' E 024°09'0 0.6
2018-Jun-18 20:01N 40°42' E 024°10'0 0.0
2018-Jun-18 19:31N 40°42' E 024°10'0 0.0
2018-Jun-18 19:00N 40°42' E 024°10'0 0.0
2018-Jun-18 18:30N 40°42' E 024°10'1 1.0
2018-Jun-18 18:00N 40°42' E 024°09'0 0.9
2018-Jun-18 17:30N 40°43' E 024°10'4 7.6
2018-Jun-18 17:01N 40°45' E 024°13'5 9.2
2018-Jun-18 16:30N 40°48' E 024°18'3 6.3
2018-Jun-18 16:00N 40°51' E 024°19'0 0.1
2018-Jun-18 15:30N 40°51' E 024°19'0 0.0
2018-Jun-18 15:00N 40°51' E 024°19'0 0.0
2018-Jun-18 14:30N 40°51' E 024°19'0 0.0
2018-Jun-18 14:00N 40°51' E 024°19'0 0.0
2018-Jun-18 13:31N 40°51' E 024°19'0 0.0
2018-Jun-18 13:01N 40°51' E 024°19'0 0.0
2018-Jun-18 12:30N 40°51' E 024°19'0 0.0
2018-Jun-18 12:01N 40°51' E 024°19'0 0.0
2018-Jun-18 11:30N 40°51' E 024°19'0 0.0
2018-Jun-18 11:00N 40°51' E 024°19'0 0.0
2018-Jun-18 10:30N 40°51' E 024°19'0 0.0
2018-Jun-18 10:01N 40°51' E 024°19'0 0.0
2018-Jun-18 09:31N 40°51' E 024°19'0 0.0
2018-Jun-18 09:01N 40°51' E 024°19'0 0.0
2018-Jun-18 08:30N 40°51' E 024°19'0 0.0
2018-Jun-18 08:00N 40°51' E 024°19'0 0.0
2018-Jun-18 07:30N 40°51' E 024°19'0 0.0
2018-Jun-18 07:01N 40°51' E 024°19'0 0.0
2018-Jun-18 06:31N 40°51' E 024°19'0 0.0
2018-Jun-18 06:01N 40°51' E 024°19'0 0.0
2018-Jun-18 05:31N 40°51' E 024°19'0 0.0
2018-Jun-18 05:01N 40°51' E 024°19'0 0.0
2018-Jun-18 04:31N 40°51' E 024°19'0 0.0
2018-Jun-18 04:00N 40°51' E 024°19'0 0.0
2018-Jun-18 03:31N 40°51' E 024°19'0 0.0
2018-Jun-18 03:01N 40°51' E 024°19'0 0.0
2018-Jun-18 02:31N 40°51' E 024°19'0 0.0
2018-Jun-18 02:00N 40°51' E 024°19'0 0.0
2018-Jun-18 01:29N 40°51' E 024°19'0 0.0
2018-Jun-18 01:00N 40°51' E 024°19'0 0.0
2018-Jun-18 00:30N 40°51' E 024°19'0 0.0
2018-Jun-18 00:00N 40°51' E 024°19'0 0.0
2018-Jun-17 23:30N 40°51' E 024°19'2 4.0
2018-Jun-17 23:01N 40°50' E 024°21'5 9.6
2018-Jun-17 22:30N 40°46' E 024°16'5 9.9
2018-Jun-17 22:00N 40°43' E 024°11'1 2.3
2018-Jun-17 21:30N 40°42' E 024°10'0 0.2
2018-Jun-17 21:00N 40°43' E 024°10'0 0.8
2018-Jun-17 20:31N 40°43' E 024°10'0 0.7
2018-Jun-17 19:59N 40°43' E 024°10'0 0.1
2018-Jun-17 19:29N 40°43' E 024°10'0 0.0
2018-Jun-17 19:00N 40°43' E 024°10'0 0.0
2018-Jun-17 18:31N 40°43' E 024°10'1 1.2
2018-Jun-17 18:01N 40°43' E 024°10'1 2.8
2018-Jun-17 17:30N 40°44' E 024°11'4 7.5
2018-Jun-17 17:00N 40°46' E 024°15'4 8.5
2018-Jun-17 16:30N 40°49' E 024°19'2 4.8
2018-Jun-17 16:00N 40°51' E 024°19'0 0.0
2018-Jun-17 15:30N 40°51' E 024°19'0 0.0
2018-Jun-17 15:01N 40°51' E 024°19'0 0.0
2018-Jun-17 14:31N 40°51' E 024°19'0 0.0
2018-Jun-17 14:00N 40°51' E 024°19'0 0.0
2018-Jun-17 13:30N 40°51' E 024°19'0 0.0
2018-Jun-17 13:00N 40°51' E 024°19'0 0.0
2018-Jun-17 12:31N 40°51' E 024°19'0 0.0
2018-Jun-17 12:00N 40°51' E 024°19'0 0.0
2018-Jun-17 11:30N 40°51' E 024°19'0 0.0
2018-Jun-17 10:59N 40°51' E 024°19'0 0.0
2018-Jun-17 10:30N 40°51' E 024°19'0 0.0
2018-Jun-17 10:01N 40°51' E 024°19'0 0.0
2018-Jun-17 09:30N 40°51' E 024°19'0 0.0
2018-Jun-17 09:00N 40°51' E 024°19'0 0.0
2018-Jun-17 08:29N 40°51' E 024°19'0 0.0
2018-Jun-17 08:00N 40°51' E 024°19'0 0.0
2018-Jun-17 07:30N 40°51' E 024°19'0 0.0
2018-Jun-17 07:01N 40°51' E 024°19'0 0.0
2018-Jun-17 06:31N 40°51' E 024°19'0 0.0
2018-Jun-17 06:01N 40°51' E 024°19'0 0.0
2018-Jun-17 05:30N 40°51' E 024°19'0 0.0
2018-Jun-17 05:00N 40°51' E 024°19'0 0.0
2018-Jun-17 04:31N 40°51' E 024°19'0 0.0
2018-Jun-17 04:00N 40°51' E 024°19'0 0.0
2018-Jun-17 03:30N 40°51' E 024°19'0 0.0
2018-Jun-17 03:01N 40°51' E 024°19'0 0.0
2018-Jun-17 02:30N 40°51' E 024°19'0 0.0
2018-Jun-17 02:01N 40°51' E 024°19'0 0.0
2018-Jun-17 01:30N 40°51' E 024°19'0 0.0
2018-Jun-17 01:01N 40°51' E 024°19'0 0.0
2018-Jun-17 00:31N 40°51' E 024°19'0 0.0
2018-Jun-17 00:00N 40°51' E 024°19'0 0.0
2018-Jun-16 23:30N 40°51' E 024°19'0 0.0
2018-Jun-16 23:00N 40°51' E 024°19'0 0.0
2018-Jun-16 22:30N 40°51' E 024°19'0 0.0
2018-Jun-16 22:00N 40°51' E 024°19'0 0.0
2018-Jun-16 21:31N 40°51' E 024°19'0 0.0
2018-Jun-16 21:00N 40°51' E 024°19'0 0.0
2018-Jun-16 20:31N 40°51' E 024°19'0 0.0
2018-Jun-16 20:01N 40°51' E 024°19'0 0.0
2018-Jun-16 19:30N 40°51' E 024°19'0 0.0
2018-Jun-16 19:01N 40°51' E 024°19'0 0.0
2018-Jun-16 18:30N 40°51' E 024°19'0 0.0
2018-Jun-16 18:00N 40°51' E 024°19'0 0.0
2018-Jun-16 17:31N 40°51' E 024°19'0 0.0
2018-Jun-16 17:01N 40°51' E 024°19'0 0.0
2018-Jun-16 16:30N 40°51' E 024°19'0 0.0
2018-Jun-16 16:00N 40°51' E 024°19'0 0.0
2018-Jun-16 15:30N 40°51' E 024°19'0 0.0
2018-Jun-16 15:01N 40°51' E 024°19'0 0.0
2018-Jun-16 14:31N 40°51' E 024°19'0 0.0
2018-Jun-16 14:01N 40°51' E 024°19'0 0.0
2018-Jun-16 13:30N 40°51' E 024°19'0 0.0
2018-Jun-16 13:01N 40°51' E 024°19'0 0.0
2018-Jun-16 12:30N 40°51' E 024°19'0 0.0
2018-Jun-16 12:00N 40°51' E 024°19'0 0.0
2018-Jun-16 11:30N 40°51' E 024°19'0 0.0
2018-Jun-16 11:01N 40°51' E 024°19'0 0.0
2018-Jun-16 10:31N 40°51' E 024°19'0 0.0
2018-Jun-16 10:00N 40°51' E 024°19'0 0.0
2018-Jun-16 09:30N 40°51' E 024°19'0 0.0
2018-Jun-16 09:00N 40°51' E 024°19'0 0.0
2018-Jun-16 08:31N 40°51' E 024°19'0 0.0
2018-Jun-16 08:00N 40°51' E 024°19'0 0.0
2018-Jun-16 07:30N 40°51' E 024°19'0 0.0
2018-Jun-16 07:01N 40°51' E 024°19'0 0.0
2018-Jun-16 06:30N 40°51' E 024°19'0 0.0
2018-Jun-16 06:00N 40°51' E 024°19'0 0.0
2018-Jun-16 05:30N 40°51' E 024°19'0 0.0
2018-Jun-16 05:00N 40°51' E 024°19'0 0.0
2018-Jun-16 04:31N 40°51' E 024°19'0 0.0
2018-Jun-16 04:01N 40°51' E 024°19'0 0.0
2018-Jun-16 03:30N 40°51' E 024°19'0 0.0
2018-Jun-16 03:01N 40°51' E 024°19'0 0.0
2018-Jun-16 02:29N 40°51' E 024°19'0 0.0
2018-Jun-16 02:01N 40°51' E 024°19'0 0.0
2018-Jun-16 01:31N 40°51' E 024°19'0 0.0
2018-Jun-16 01:00N 40°51' E 024°19'0 0.0
2018-Jun-16 00:30N 40°51' E 024°19'0 0.0
2018-Jun-16 00:00N 40°51' E 024°19'0 0.1
2018-Jun-15 23:31N 40°51' E 024°19'2 4.9
2018-Jun-15 23:00N 40°49' E 024°20'5 9.2
2018-Jun-15 22:30N 40°46' E 024°15'5 9.0
2018-Jun-15 21:59N 40°43' E 024°10'1 1.0
2018-Jun-15 20:57N 40°42' E 024°09'0 1.0
2018-Jun-15 20:30N 40°42' E 024°09'0 0.5
2018-Jun-15 19:58N 40°43' E 024°10'0 0.0
2018-Jun-15 19:30N 40°43' E 024°10'0 0.0
2018-Jun-15 19:00N 40°43' E 024°10'0 0.0
2018-Jun-15 18:30N 40°43' E 024°10'0 0.9
2018-Jun-15 18:00N 40°42' E 024°09'2 3.8
2018-Jun-15 17:30N 40°43' E 024°11'3 6.6
2018-Jun-15 17:00N 40°45' E 024°15'4 8.3
2018-Jun-15 16:31N 40°48' E 024°19'3 6.0
2018-Jun-15 16:00N 40°51' E 024°19'0 0.1
2018-Jun-15 15:31N 40°51' E 024°19'0 0.0
2018-Jun-15 15:01N 40°51' E 024°19'0 0.0
2018-Jun-15 14:30N 40°51' E 024°19'0 0.0
2018-Jun-15 14:00N 40°51' E 024°19'0 0.0
2018-Jun-15 13:31N 40°51' E 024°19'0 0.0
2018-Jun-15 13:01N 40°51' E 024°19'0 0.0
2018-Jun-15 12:30N 40°51' E 024°19'0 0.0
2018-Jun-15 12:01N 40°51' E 024°19'0 0.0
2018-Jun-15 11:30N 40°51' E 024°19'0 0.0
2018-Jun-15 11:01N 40°51' E 024°19'0 0.0
2018-Jun-15 10:31N 40°51' E 024°19'0 0.0
2018-Jun-15 10:00N 40°51' E 024°19'0 0.0
2018-Jun-15 09:31N 40°51' E 024°19'0 0.0
2018-Jun-15 08:59N 40°51' E 024°19'0 0.0
2018-Jun-15 08:30N 40°51' E 024°19'0 0.0
2018-Jun-15 08:01N 40°51' E 024°19'0 0.0
2018-Jun-15 07:31N 40°51' E 024°19'0 0.0
2018-Jun-15 07:00N 40°51' E 024°19'0 0.0
2018-Jun-15 06:31N 40°51' E 024°19'0 0.0
2018-Jun-15 06:01N 40°51' E 024°19'0 0.0
2018-Jun-15 05:30N 40°51' E 024°19'0 0.0
2018-Jun-15 05:00N 40°51' E 024°19'0 0.0
2018-Jun-15 04:31N 40°51' E 024°19'0 0.0
2018-Jun-15 04:00N 40°51' E 024°19'0 0.0
2018-Jun-15 03:31N 40°51' E 024°19'0 0.0
2018-Jun-15 03:01N 40°51' E 024°19'0 0.0
2018-Jun-15 02:29N 40°51' E 024°19'0 0.0
2018-Jun-15 02:01N 40°51' E 024°19'0 0.0
2018-Jun-15 01:30N 40°51' E 024°19'0 0.0
2018-Jun-15 01:00N 40°51' E 024°19'0 0.0
2018-Jun-15 00:30N 40°51' E 024°19'0 0.1
2018-Jun-14 23:59N 40°51' E 024°19'4 7.4
2018-Jun-14 23:30N 40°47' E 024°19'5 9.1
2018-Jun-14 23:01N 40°44' E 024°16'5 9.8
2018-Jun-14 22:31N 40°40' E 024°12'0 0.6
2018-Jun-14 21:59N 40°39' E 024°12'0 0.2
2018-Jun-14 21:30N 40°39' E 024°12'0 0.7
2018-Jun-14 21:00N 40°39' E 024°12'0 0.5
2018-Jun-14 20:30N 40°39' E 024°11'0 0.0
2018-Jun-14 19:58N 40°39' E 024°11'0 0.0
2018-Jun-14 19:30N 40°39' E 024°11'0 0.0
2018-Jun-14 19:00N 40°39' E 024°11'0 0.0
2018-Jun-14 18:30N 40°39' E 024°11'0 0.3
2018-Jun-14 17:59N 40°39' E 024°11'3 6.8
2018-Jun-14 17:30N 40°42' E 024°14'4 8.9
2018-Jun-14 17:00N 40°46' E 024°17'4 8.8
2018-Jun-14 16:30N 40°49' E 024°20'2 4.3
2018-Jun-14 16:00N 40°51' E 024°19'0 0.0
2018-Jun-14 15:30N 40°51' E 024°19'0 0.0
2018-Jun-14 15:00N 40°51' E 024°19'0 0.0
2018-Jun-14 14:31N 40°51' E 024°19'0 0.0
2018-Jun-14 14:00N 40°51' E 024°19'0 0.0
2018-Jun-14 13:30N 40°51' E 024°19'0 0.0
2018-Jun-14 13:00N 40°51' E 024°19'0 0.0
2018-Jun-14 12:30N 40°51' E 024°19'0 0.0
2018-Jun-14 12:01N 40°51' E 024°19'0 0.0
2018-Jun-14 11:31N 40°51' E 024°19'0 0.0
2018-Jun-14 11:01N 40°51' E 024°19'0 0.0
2018-Jun-14 10:31N 40°51' E 024°19'0 0.0
2018-Jun-14 10:01N 40°51' E 024°19'0 0.0
2018-Jun-14 09:31N 40°51' E 024°19'0 0.0
2018-Jun-14 09:01N 40°51' E 024°19'0 0.0
2018-Jun-14 08:30N 40°51' E 024°19'0 0.0
2018-Jun-14 08:00N 40°51' E 024°19'0 0.0
2018-Jun-14 07:30N 40°51' E 024°19'0 0.0
2018-Jun-14 07:01N 40°51' E 024°19'0 0.0
2018-Jun-14 06:31N 40°51' E 024°19'0 0.0
2018-Jun-14 06:00N 40°51' E 024°19'0 0.0
2018-Jun-14 05:30N 40°51' E 024°19'0 0.0
2018-Jun-14 05:00N 40°51' E 024°19'0 0.0
2018-Jun-14 04:31N 40°51' E 024°19'0 0.0
2018-Jun-14 04:00N 40°51' E 024°19'0 0.0
2018-Jun-14 03:30N 40°51' E 024°19'0 0.0
2018-Jun-14 03:00N 40°51' E 024°19'0 0.0
2018-Jun-14 02:30N 40°51' E 024°19'0 0.0
2018-Jun-14 02:00N 40°51' E 024°19'0 0.0
2018-Jun-14 01:30N 40°51' E 024°19'0 0.0
2018-Jun-14 01:00N 40°51' E 024°19'0 0.0
2018-Jun-14 00:30N 40°51' E 024°19'0 0.0
2018-Jun-14 00:00N 40°51' E 024°19'0 0.0
2018-Jun-13 23:30N 40°51' E 024°19'0 0.5
2018-Jun-13 23:01N 40°51' E 024°19'2 4.9
2018-Jun-13 22:31N 40°48' E 024°20'5 9.3
2018-Jun-13 22:01N 40°45' E 024°16'5 9.7
2018-Jun-13 21:31N 40°40' E 024°13'2 3.2
2018-Jun-13 21:01N 40°39' E 024°12'0 0.6
2018-Jun-13 20:31N 40°39' E 024°12'1 1.0
2018-Jun-13 20:01N 40°39' E 024°11'0 0.0
2018-Jun-13 19:30N 40°39' E 024°11'0 0.0
2018-Jun-13 19:01N 40°39' E 024°11'0 0.0
2018-Jun-13 18:30N 40°39' E 024°11'1 1.0
2018-Jun-13 18:00N 40°39' E 024°12'2 4.9
2018-Jun-13 17:30N 40°41' E 024°14'4 8.3
2018-Jun-13 17:01N 40°44' E 024°17'  
2018-Jun-09 15:18N 40°51' E 024°19'0 0.0
2018-Jun-09 14:31N 40°51' E 024°19'0 0.0
2018-Jun-09 14:00N 40°51' E 024°19'0 0.0
2018-Jun-09 13:29N 40°51' E 024°19'0 0.0
2018-Jun-09 13:00N 40°51' E 024°19'0 0.0
2018-Jun-09 12:30N 40°51' E 024°19'0 0.0
2018-Jun-09 12:00N 40°51' E 024°19'0 0.0
2018-Jun-09 11:31N 40°51' E 024°19'0 0.0
2018-Jun-09 11:00N 40°51' E 024°19'0 0.0
2018-Jun-09 10:30N 40°51' E 024°19'0 0.0
2018-Jun-09 10:00N 40°51' E 024°19'0 0.0
2018-Jun-09 09:30N 40°51' E 024°19'0 0.0
2018-Jun-09 09:00N 40°51' E 024°19'0 0.0
2018-Jun-09 08:30N 40°51' E 024°19'0 0.0
2018-Jun-09 08:00N 40°51' E 024°19'0 0.0
2018-Jun-09 07:30N 40°51' E 024°19'0 0.0
2018-Jun-09 07:00N 40°51' E 024°19'0 0.0
2018-Jun-09 06:30N 40°51' E 024°19'0 0.0
2018-Jun-09 06:00N 40°51' E 024°19'0 0.0
2018-Jun-09 05:30N 40°51' E 024°19'0 0.0
2018-Jun-09 05:00N 40°51' E 024°19'0 0.0
2018-Jun-09 04:30N 40°51' E 024°19'0 0.0
2018-Jun-09 04:00N 40°51' E 024°19'1 2.0
2018-Jun-09 03:30N 40°50' E 024°20'4 7.8
2018-Jun-09 03:00N 40°46' E 024°19'5 9.1
2018-Jun-09 02:30N 40°42' E 024°16'5 9.3
2018-Jun-09 02:00N 40°38' E 024°13'2 3.1
2018-Jun-09 01:23N 40°37' E 024°12'  
Track history (hours):
 
Tides and Currents Weather Stations Pressure Air Temp Water Temp Dewpoint Dewpoint Depression Visibility Wind Speed Wind Dir Waves Ship Positions

Ag.nikolaos-ii

Last reported at 2018-Jun-19 01:00 UTC. Time now 2018-Jun-19 01:21 UTC.
Position N 40°51' E 024°19'.

Length 21 m; draft 2 m.

Type: Fishing. MMSI: 239044000.

Date/timePositionNaut miles runAvg speedWind from/ knotsBaromVisibWave heightAir tempDewpointWater temp
2018-Jun-19 01:00N 40°51' E 024°19'0 0.0
2018-Jun-19 00:30N 40°51' E 024°19'0 0.0
2018-Jun-19 00:00N 40°51' E 024°19'0 0.0
2018-Jun-18 23:30N 40°51' E 024°19'2 4.9
2018-Jun-18 23:00N 40°49' E 024°19'5 9.4
2018-Jun-18 22:30N 40°46' E 024°14'5 9.8
2018-Jun-18 22:00N 40°43' E 024°09'0 0.6
2018-Jun-18 21:29N 40°42' E 024°09'0 0.2
2018-Jun-18 21:01N 40°42' E 024°09'0 0.5
2018-Jun-18 20:30N 40°42' E 024°09'0 0.6
2018-Jun-18 20:01N 40°42' E 024°10'0 0.0
2018-Jun-18 19:31N 40°42' E 024°10'0 0.0
2018-Jun-18 19:00N 40°42' E 024°10'0 0.0
2018-Jun-18 18:30N 40°42' E 024°10'1 1.0
2018-Jun-18 18:00N 40°42' E 024°09'0 0.9
2018-Jun-18 17:30N 40°43' E 024°10'4 7.6
2018-Jun-18 17:01N 40°45' E 024°13'5 9.2
2018-Jun-18 16:30N 40°48' E 024°18'3 6.3
2018-Jun-18 16:00N 40°51' E 024°19'0 0.1
2018-Jun-18 15:30N 40°51' E 024°19'0 0.0
2018-Jun-18 15:00N 40°51' E 024°19'0 0.0
2018-Jun-18 14:30N 40°51' E 024°19'0 0.0
2018-Jun-18 14:00N 40°51' E 024°19'0 0.0
2018-Jun-18 13:31N 40°51' E 024°19'0 0.0
2018-Jun-18 13:01N 40°51' E 024°19'0 0.0
2018-Jun-18 12:30N 40°51' E 024°19'0 0.0
2018-Jun-18 12:01N 40°51' E 024°19'0 0.0
2018-Jun-18 11:30N 40°51' E 024°19'0 0.0
2018-Jun-18 11:00N 40°51' E 024°19'0 0.0
2018-Jun-18 10:30N 40°51' E 024°19'0 0.0
2018-Jun-18 10:01N 40°51' E 024°19'0 0.0
2018-Jun-18 09:31N 40°51' E 024°19'0 0.0
2018-Jun-18 09:01N 40°51' E 024°19'0 0.0
2018-Jun-18 08:30N 40°51' E 024°19'0 0.0
2018-Jun-18 08:00N 40°51' E 024°19'0 0.0
2018-Jun-18 07:30N 40°51' E 024°19'0 0.0
2018-Jun-18 07:01N 40°51' E 024°19'0 0.0
2018-Jun-18 06:31N 40°51' E 024°19'0 0.0
2018-Jun-18 06:01N 40°51' E 024°19'0 0.0
2018-Jun-18 05:31N 40°51' E 024°19'0 0.0
2018-Jun-18 05:01N 40°51' E 024°19'0 0.0
2018-Jun-18 04:31N 40°51' E 024°19'0 0.0
2018-Jun-18 04:00N 40°51' E 024°19'0 0.0
2018-Jun-18 03:31N 40°51' E 024°19'0 0.0
2018-Jun-18 03:01N 40°51' E 024°19'0 0.0
2018-Jun-18 02:31N 40°51' E 024°19'0 0.0
2018-Jun-18 02:00N 40°51' E 024°19'0 0.0
2018-Jun-18 01:29N 40°51' E 024°19'0 0.0
2018-Jun-18 01:00N 40°51' E 024°19'0 0.0
2018-Jun-18 00:30N 40°51' E 024°19'0 0.0
2018-Jun-18 00:00N 40°51' E 024°19'0 0.0
2018-Jun-17 23:30N 40°51' E 024°19'2 4.0
2018-Jun-17 23:01N 40°50' E 024°21'5 9.6
2018-Jun-17 22:30N 40°46' E 024°16'5 9.9
2018-Jun-17 22:00N 40°43' E 024°11'1 2.3
2018-Jun-17 21:30N 40°42' E 024°10'0 0.2
2018-Jun-17 21:00N 40°43' E 024°10'0 0.8
2018-Jun-17 20:31N 40°43' E 024°10'0 0.7
2018-Jun-17 19:59N 40°43' E 024°10'0 0.1
2018-Jun-17 19:29N 40°43' E 024°10'0 0.0
2018-Jun-17 19:00N 40°43' E 024°10'0 0.0
2018-Jun-17 18:31N 40°43' E 024°10'1 1.2
2018-Jun-17 18:01N 40°43' E 024°10'1 2.8
2018-Jun-17 17:30N 40°44' E 024°11'4 7.5
2018-Jun-17 17:00N 40°46' E 024°15'4 8.5
2018-Jun-17 16:30N 40°49' E 024°19'2 4.8
2018-Jun-17 16:00N 40°51' E 024°19'0 0.0
2018-Jun-17 15:30N 40°51' E 024°19'0 0.0
2018-Jun-17 15:01N 40°51' E 024°19'0 0.0
2018-Jun-17 14:31N 40°51' E 024°19'0 0.0
2018-Jun-17 14:00N 40°51' E 024°19'0 0.0
2018-Jun-17 13:30N 40°51' E 024°19'0 0.0
2018-Jun-17 13:00N 40°51' E 024°19'0 0.0
2018-Jun-17 12:31N 40°51' E 024°19'0 0.0
2018-Jun-17 12:00N 40°51' E 024°19'0 0.0
2018-Jun-17 11:30N 40°51' E 024°19'0 0.0
2018-Jun-17 10:59N 40°51' E 024°19'0 0.0
2018-Jun-17 10:30N 40°51' E 024°19'0 0.0
2018-Jun-17 10:01N 40°51' E 024°19'0 0.0
2018-Jun-17 09:30N 40°51' E 024°19'0 0.0
2018-Jun-17 09:00N 40°51' E 024°19'0 0.0
2018-Jun-17 08:29N 40°51' E 024°19'0 0.0
2018-Jun-17 08:00N 40°51' E 024°19'0 0.0
2018-Jun-17 07:30N 40°51' E 024°19'0 0.0
2018-Jun-17 07:01N 40°51' E 024°19'0 0.0
2018-Jun-17 06:31N 40°51' E 024°19'0 0.0
2018-Jun-17 06:01N 40°51' E 024°19'0 0.0
2018-Jun-17 05:30N 40°51' E 024°19'0 0.0
2018-Jun-17 05:00N 40°51' E 024°19'0 0.0
2018-Jun-17 04:31N 40°51' E 024°19'0 0.0
2018-Jun-17 04:00N 40°51' E 024°19'0 0.0
2018-Jun-17 03:30N 40°51' E 024°19'0 0.0
2018-Jun-17 03:01N 40°51' E 024°19'0 0.0
2018-Jun-17 02:30N 40°51' E 024°19'0 0.0
2018-Jun-17 02:01N 40°51' E 024°19'0 0.0
2018-Jun-17 01:30N 40°51' E 024°19'0 0.0
2018-Jun-17 01:01N 40°51' E 024°19'0 0.0
2018-Jun-17 00:31N 40°51' E 024°19'0 0.0
2018-Jun-17 00:00N 40°51' E 024°19'0 0.0
2018-Jun-16 23:30N 40°51' E 024°19'0 0.0
2018-Jun-16 23:00N 40°51' E 024°19'0 0.0
2018-Jun-16 22:30N 40°51' E 024°19'0 0.0
2018-Jun-16 22:00N 40°51' E 024°19'0 0.0
2018-Jun-16 21:31N 40°51' E 024°19'0 0.0
2018-Jun-16 21:00N 40°51' E 024°19'0 0.0
2018-Jun-16 20:31N 40°51' E 024°19'0 0.0
2018-Jun-16 20:01N 40°51' E 024°19'0 0.0
2018-Jun-16 19:30N 40°51' E 024°19'0 0.0
2018-Jun-16 19:01N 40°51' E 024°19'0 0.0
2018-Jun-16 18:30N 40°51' E 024°19'0 0.0
2018-Jun-16 18:00N 40°51' E 024°19'0 0.0
2018-Jun-16 17:31N 40°51' E 024°19'0 0.0
2018-Jun-16 17:01N 40°51' E 024°19'0 0.0
2018-Jun-16 16:30N 40°51' E 024°19'0 0.0
2018-Jun-16 16:00N 40°51' E 024°19'0 0.0
2018-Jun-16 15:30N 40°51' E 024°19'0 0.0
2018-Jun-16 15:01N 40°51' E 024°19'0 0.0
2018-Jun-16 14:31N 40°51' E 024°19'0 0.0
2018-Jun-16 14:01N 40°51' E 024°19'0 0.0
2018-Jun-16 13:30N 40°51' E 024°19'0 0.0
2018-Jun-16 13:01N 40°51' E 024°19'0 0.0
2018-Jun-16 12:30N 40°51' E 024°19'0 0.0
2018-Jun-16 12:00N 40°51' E 024°19'0 0.0
2018-Jun-16 11:30N 40°51' E 024°19'0 0.0
2018-Jun-16 11:01N 40°51' E 024°19'0 0.0
2018-Jun-16 10:31N 40°51' E 024°19'0 0.0
2018-Jun-16 10:00N 40°51' E 024°19'0 0.0
2018-Jun-16 09:30N 40°51' E 024°19'0 0.0
2018-Jun-16 09:00N 40°51' E 024°19'0 0.0
2018-Jun-16 08:31N 40°51' E 024°19'0 0.0
2018-Jun-16 08:00N 40°51' E 024°19'0 0.0
2018-Jun-16 07:30N 40°51' E 024°19'0 0.0
2018-Jun-16 07:01N 40°51' E 024°19'0 0.0
2018-Jun-16 06:30N 40°51' E 024°19'0 0.0
2018-Jun-16 06:00N 40°51' E 024°19'0 0.0
2018-Jun-16 05:30N 40°51' E 024°19'0 0.0
2018-Jun-16 05:00N 40°51' E 024°19'0 0.0
2018-Jun-16 04:31N 40°51' E 024°19'0 0.0
2018-Jun-16 04:01N 40°51' E 024°19'0 0.0
2018-Jun-16 03:30N 40°51' E 024°19'0 0.0
2018-Jun-16 03:01N 40°51' E 024°19'0 0.0
2018-Jun-16 02:29N 40°51' E 024°19'0 0.0
2018-Jun-16 02:01N 40°51' E 024°19'0 0.0
2018-Jun-16 01:31N 40°51' E 024°19'0 0.0
2018-Jun-16 01:00N 40°51' E 024°19'0 0.0
2018-Jun-16 00:30N 40°51' E 024°19'0 0.0
2018-Jun-16 00:00N 40°51' E 024°19'0 0.1
2018-Jun-15 23:31N 40°51' E 024°19'2 4.9
2018-Jun-15 23:00N 40°49' E 024°20'5 9.2
2018-Jun-15 22:30N 40°46' E 024°15'5 9.0
2018-Jun-15 21:59N 40°43' E 024°10'1 1.0
2018-Jun-15 20:57N 40°42' E 024°09'0 1.0
2018-Jun-15 20:30N 40°42' E 024°09'0 0.5
2018-Jun-15 19:58N 40°43' E 024°10'0 0.0
2018-Jun-15 19:30N 40°43' E 024°10'0 0.0
2018-Jun-15 19:00N 40°43' E 024°10'0 0.0
2018-Jun-15 18:30N 40°43' E 024°10'0 0.9
2018-Jun-15 18:00N 40°42' E 024°09'2 3.8
2018-Jun-15 17:30N 40°43' E 024°11'3 6.6
2018-Jun-15 17:00N 40°45' E 024°15'4 8.3
2018-Jun-15 16:31N 40°48' E 024°19'3 6.0
2018-Jun-15 16:00N 40°51' E 024°19'0 0.1
2018-Jun-15 15:31N 40°51' E 024°19'0 0.0
2018-Jun-15 15:01N 40°51' E 024°19'0 0.0
2018-Jun-15 14:30N 40°51' E 024°19'0 0.0
2018-Jun-15 14:00N 40°51' E 024°19'0 0.0
2018-Jun-15 13:31N 40°51' E 024°19'0 0.0
2018-Jun-15 13:01N 40°51' E 024°19'0 0.0
2018-Jun-15 12:30N 40°51' E 024°19'0 0.0
2018-Jun-15 12:01N 40°51' E 024°19'0 0.0
2018-Jun-15 11:30N 40°51' E 024°19'0 0.0
2018-Jun-15 11:01N 40°51' E 024°19'0 0.0
2018-Jun-15 10:31N 40°51' E 024°19'0 0.0
2018-Jun-15 10:00N 40°51' E 024°19'0 0.0
2018-Jun-15 09:31N 40°51' E 024°19'0 0.0
2018-Jun-15 08:59N 40°51' E 024°19'0 0.0
2018-Jun-15 08:30N 40°51' E 024°19'0 0.0
2018-Jun-15 08:01N 40°51' E 024°19'0 0.0
2018-Jun-15 07:31N 40°51' E 024°19'0 0.0
2018-Jun-15 07:00N 40°51' E 024°19'0 0.0
2018-Jun-15 06:31N 40°51' E 024°19'0 0.0
2018-Jun-15 06:01N 40°51' E 024°19'0 0.0
2018-Jun-15 05:30N 40°51' E 024°19'0 0.0
2018-Jun-15 05:00N 40°51' E 024°19'0 0.0
2018-Jun-15 04:31N 40°51' E 024°19'0 0.0
2018-Jun-15 04:00N 40°51' E 024°19'0 0.0
2018-Jun-15 03:31N 40°51' E 024°19'0 0.0
2018-Jun-15 03:01N 40°51' E 024°19'0 0.0
2018-Jun-15 02:29N 40°51' E 024°19'0 0.0
2018-Jun-15 02:01N 40°51' E 024°19'0 0.0
2018-Jun-15 01:30N 40°51' E 024°19'0 0.0
2018-Jun-15 01:00N 40°51' E 024°19'0 0.0
2018-Jun-15 00:30N 40°51' E 024°19'0 0.1
2018-Jun-14 23:59N 40°51' E 024°19'4 7.4
2018-Jun-14 23:30N 40°47' E 024°19'5 9.1
2018-Jun-14 23:01N 40°44' E 024°16'5 9.8
2018-Jun-14 22:31N 40°40' E 024°12'0 0.6
2018-Jun-14 21:59N 40°39' E 024°12'0 0.2
2018-Jun-14 21:30N 40°39' E 024°12'0 0.7
2018-Jun-14 21:00N 40°39' E 024°12'0 0.5
2018-Jun-14 20:30N 40°39' E 024°11'0 0.0
2018-Jun-14 19:58N 40°39' E 024°11'0 0.0
2018-Jun-14 19:30N 40°39' E 024°11'0 0.0
2018-Jun-14 19:00N 40°39' E 024°11'0 0.0
2018-Jun-14 18:30N 40°39' E 024°11'0 0.3
2018-Jun-14 17:59N 40°39' E 024°11'3 6.8
2018-Jun-14 17:30N 40°42' E 024°14'4 8.9
2018-Jun-14 17:00N 40°46' E 024°17'4 8.8
2018-Jun-14 16:30N 40°49' E 024°20'2 4.3
2018-Jun-14 16:00N 40°51' E 024°19'0 0.0
2018-Jun-14 15:30N 40°51' E 024°19'0 0.0
2018-Jun-14 15:00N 40°51' E 024°19'0 0.0
2018-Jun-14 14:31N 40°51' E 024°19'0 0.0
2018-Jun-14 14:00N 40°51' E 024°19'0 0.0
2018-Jun-14 13:30N 40°51' E 024°19'0 0.0
2018-Jun-14 13:00N 40°51' E 024°19'0 0.0
2018-Jun-14 12:30N 40°51' E 024°19'0 0.0
2018-Jun-14 12:01N 40°51' E 024°19'0 0.0
2018-Jun-14 11:31N 40°51' E 024°19'0 0.0
2018-Jun-14 11:01N 40°51' E 024°19'0 0.0
2018-Jun-14 10:31N 40°51' E 024°19'0 0.0
2018-Jun-14 10:01N 40°51' E 024°19'0 0.0
2018-Jun-14 09:31N 40°51' E 024°19'0 0.0
2018-Jun-14 09:01N 40°51' E 024°19'0 0.0
2018-Jun-14 08:30N 40°51' E 024°19'0 0.0
2018-Jun-14 08:00N 40°51' E 024°19'0 0.0
2018-Jun-14 07:30N 40°51' E 024°19'0 0.0
2018-Jun-14 07:01N 40°51' E 024°19'0 0.0
2018-Jun-14 06:31N 40°51' E 024°19'0 0.0
2018-Jun-14 06:00N 40°51' E 024°19'0 0.0
2018-Jun-14 05:30N 40°51' E 024°19'0 0.0
2018-Jun-14 05:00N 40°51' E 024°19'0 0.0
2018-Jun-14 04:31N 40°51' E 024°19'0 0.0
2018-Jun-14 04:00N 40°51' E 024°19'0 0.0
2018-Jun-14 03:30N 40°51' E 024°19'0 0.0
2018-Jun-14 03:00N 40°51' E 024°19'0 0.0
2018-Jun-14 02:30N 40°51' E 024°19'0 0.0
2018-Jun-14 02:00N 40°51' E 024°19'0 0.0
2018-Jun-14 01:30N 40°51' E 024°19'0 0.0
2018-Jun-14 01:00N 40°51' E 024°19'0 0.0
2018-Jun-14 00:30N 40°51' E 024°19'0 0.0
2018-Jun-14 00:00N 40°51' E 024°19'0 0.0
2018-Jun-13 23:30N 40°51' E 024°19'0 0.5
2018-Jun-13 23:01N 40°51' E 024°19'2 4.9
2018-Jun-13 22:31N 40°48' E 024°20'5 9.3
2018-Jun-13 22:01N 40°45' E 024°16'5 9.7
2018-Jun-13 21:31N 40°40' E 024°13'2 3.2
2018-Jun-13 21:01N 40°39' E 024°12'0 0.6
2018-Jun-13 20:31N 40°39' E 024°12'1 1.0
2018-Jun-13 20:01N 40°39' E 024°11'0 0.0
2018-Jun-13 19:30N 40°39' E 024°11'0 0.0
2018-Jun-13 19:01N 40°39' E 024°11'0 0.0
2018-Jun-13 18:30N 40°39' E 024°11'1 1.0
2018-Jun-13 18:00N 40°39' E 024°12'2 4.9
2018-Jun-13 17:30N 40°41' E 024°14'4 8.3
2018-Jun-13 17:01N 40°44' E 024°17'  
2018-Jun-09 15:18N 40°51' E 024°19'0 0.0
2018-Jun-09 14:31N 40°51' E 024°19'0 0.0
2018-Jun-09 14:00N 40°51' E 024°19'0 0.0
2018-Jun-09 13:29N 40°51' E 024°19'0 0.0
2018-Jun-09 13:00N 40°51' E 024°19'0 0.0
2018-Jun-09 12:30N 40°51' E 024°19'0 0.0
2018-Jun-09 12:00N 40°51' E 024°19'0 0.0
2018-Jun-09 11:31N 40°51' E 024°19'0 0.0
2018-Jun-09 11:00N 40°51' E 024°19'0 0.0
2018-Jun-09 10:30N 40°51' E 024°19'0 0.0
2018-Jun-09 10:00N 40°51' E 024°19'0 0.0
2018-Jun-09 09:30N 40°51' E 024°19'0 0.0
2018-Jun-09 09:00N 40°51' E 024°19'0 0.0
2018-Jun-09 08:30N 40°51' E 024°19'0 0.0
2018-Jun-09 08:00N 40°51' E 024°19'0 0.0
2018-Jun-09 07:30N 40°51' E 024°19'0 0.0
2018-Jun-09 07:00N 40°51' E 024°19'0 0.0
2018-Jun-09 06:30N 40°51' E 024°19'0 0.0
2018-Jun-09 06:00N 40°51' E 024°19'0 0.0
2018-Jun-09 05:30N 40°51' E 024°19'0 0.0
2018-Jun-09 05:00N 40°51' E 024°19'0 0.0
2018-Jun-09 04:30N 40°51' E 024°19'0 0.0
2018-Jun-09 04:00N 40°51' E 024°19'1 2.0
2018-Jun-09 03:30N 40°50' E 024°20'4 7.8
2018-Jun-09 03:00N 40°46' E 024°19'5 9.1
2018-Jun-09 02:30N 40°42' E 024°16'5 9.3
2018-Jun-09 02:00N 40°38' E 024°13'2 3.1
2018-Jun-09 01:23N 40°37' E 024°12'  

Dump ship's entire track history